createdAt,value
2023-04-22T00:00:40.552Z,100502.20
2023-04-22T00:03:19.141Z,100499.83
2023-04-22T00:05:47.577Z,100498.05
2023-04-22T00:08:15.789Z,100498.27
2023-04-22T00:10:44.011Z,100495.41
2023-04-22T00:13:12.130Z,100497.73
2023-04-22T00:15:40.360Z,100500.94
2023-04-22T00:18:13.238Z,100504.61
2023-04-22T00:20:43.148Z,100508.83
2023-04-22T00:23:11.315Z,100509.64
2023-04-22T00:25:39.460Z,100512.07
2023-04-22T00:28:07.518Z,100504.98
2023-04-22T00:30:35.894Z,100498.17
2023-04-22T00:33:04.035Z,100503.27
2023-04-22T00:35:32.392Z,100504.65
2023-04-22T00:38:00.591Z,100506.45
2023-04-22T00:40:28.700Z,100508.83
2023-04-22T00:42:56.945Z,100504.95
2023-04-22T00:45:25.015Z,100507.98
2023-04-22T00:47:53.182Z,100506.65
2023-04-22T00:50:21.201Z,100507.63
2023-04-22T00:52:49.315Z,100508.10
2023-04-22T00:55:17.570Z,100507.75
2023-04-22T00:57:45.650Z,100509.70
2023-04-22T01:00:14.165Z,100509.20
2023-04-22T01:02:42.454Z,100505.54
2023-04-22T01:05:10.760Z,100509.39
2023-04-22T01:07:38.902Z,100511.05
2023-04-22T01:10:08.112Z,100513.05
2023-04-22T01:12:36.264Z,100514.84
2023-04-22T01:15:05.349Z,100514.01
2023-04-22T01:17:33.546Z,100517.31
2023-04-22T01:20:03.486Z,100520.88
2023-04-22T01:22:34.215Z,100522.34
2023-04-22T01:25:02.820Z,100520.59
2023-04-22T01:27:30.937Z,100525.23
2023-04-22T01:29:59.034Z,100528.23
2023-04-22T01:32:29.823Z,100527.02
2023-04-22T01:34:58.332Z,100526.86
2023-04-22T01:37:26.552Z,100522.73
2023-04-22T01:39:54.681Z,100518.31
2023-04-22T01:42:22.818Z,100516.09
2023-04-22T01:44:50.968Z,100515.80
2023-04-22T01:47:18.949Z,100513.07
2023-04-22T01:49:47.127Z,100510.27
2023-04-22T01:52:15.314Z,100508.09
2023-04-22T01:54:43.519Z,100510.70
2023-04-22T01:57:13.402Z,100505.84
2023-04-22T01:59:42.010Z,100505.84
2023-04-22T02:02:10.377Z,100506.17
2023-04-22T02:04:38.620Z,100503.48
2023-04-22T02:07:06.853Z,100502.10
2023-04-22T02:09:35.109Z,100500.20
2023-04-22T02:12:03.331Z,100501.86
2023-04-22T02:14:31.494Z,100501.73
2023-04-22T02:17:01.772Z,100500.77
2023-04-22T02:19:30.014Z,100504.65
2023-04-22T02:21:58.296Z,100505.34
2023-04-22T02:24:26.760Z,100508.70
2023-04-22T02:26:54.983Z,100509.56
2023-04-22T02:29:24.064Z,100509.52
2023-04-22T02:31:52.233Z,100510.20
2023-04-22T02:34:20.532Z,100512.67
2023-04-22T02:36:48.813Z,100514.39
2023-04-22T02:39:17.019Z,100513.75
2023-04-22T02:41:45.343Z,100517.92
2023-04-22T02:44:13.392Z,100517.37
2023-04-22T02:46:41.508Z,100520.16
2023-04-22T02:49:09.777Z,100528.44
2023-04-22T02:51:38.858Z,100528.20
2023-04-22T02:54:07.032Z,100527.26
2023-04-22T02:56:35.750Z,100532.60
2023-04-22T02:59:03.745Z,100533.33
2023-04-22T03:01:32.148Z,100536.73
2023-04-22T03:04:00.820Z,100536.64
2023-04-22T03:06:29.194Z,100537.03
2023-04-22T03:08:57.267Z,100535.17
2023-04-22T03:11:25.981Z,100535.20
2023-04-22T03:13:54.073Z,100535.04
2023-04-22T03:16:24.362Z,100540.59
2023-04-22T03:18:52.847Z,100539.33
2023-04-22T03:21:20.977Z,100545.23
2023-04-22T03:23:49.150Z,100549.60
2023-04-22T03:26:17.200Z,100547.05
2023-04-22T03:28:45.370Z,100550.44
2023-04-22T03:31:13.493Z,100552.48
2023-04-22T03:33:41.642Z,100558.30
2023-04-22T03:36:09.798Z,100556.16
2023-04-22T03:38:37.882Z,100559.89
2023-04-22T03:41:06.030Z,100564.48
2023-04-22T03:43:34.269Z,100572.70
2023-04-22T03:46:02.463Z,100576.67
2023-04-22T03:48:34.945Z,100577.60
2023-04-22T03:51:03.212Z,100580.42
2023-04-22T03:53:31.257Z,100579.48
2023-04-22T03:55:59.371Z,100585.02
2023-04-22T03:58:27.583Z,100585.75
2023-04-22T04:00:55.785Z,100583.65
2023-04-22T04:03:24.171Z,100584.02
2023-04-22T04:05:52.578Z,100586.91
2023-04-22T04:08:20.763Z,100586.06
2023-04-22T04:10:48.821Z,100581.19
2023-04-22T04:13:17.016Z,100583.60
2023-04-22T04:15:45.194Z,100582.46
2023-04-22T04:18:13.414Z,100582.48
2023-04-22T04:20:41.509Z,100585.14
2023-04-22T04:23:09.738Z,100593.80
2023-04-22T04:25:38.351Z,100596.79
2023-04-22T04:28:09.262Z,100605.15
2023-04-22T04:30:37.723Z,100613.58
2023-04-22T04:33:06.974Z,100615.33
2023-04-22T04:35:35.534Z,100614.73
2023-04-22T04:38:03.531Z,100620.61
2023-04-22T04:40:31.639Z,100624.06
2023-04-22T04:43:02.183Z,100624.32
2023-04-22T04:45:30.464Z,100627.64
2023-04-22T04:48:00.134Z,100629.30
2023-04-22T04:50:28.481Z,100629.86
2023-04-22T04:52:56.540Z,100634.20
2023-04-22T04:55:24.829Z,100633.69
2023-04-22T04:57:52.998Z,100634.80
2023-04-22T05:00:21.201Z,100636.02
2023-04-22T05:02:49.323Z,100638.95
2023-04-22T05:05:17.787Z,100644.71
2023-04-22T05:07:46.018Z,100646.02
2023-04-22T05:10:14.126Z,100639.80
2023-04-22T05:12:43.721Z,100641.27
2023-04-22T05:15:12.153Z,100646.14
2023-04-22T05:17:40.460Z,100652.63
2023-04-22T05:20:09.412Z,100657.30
2023-04-22T05:22:37.594Z,100659.70
2023-04-22T05:25:06.428Z,100661.16
2023-04-22T05:27:35.005Z,100667.13
2023-04-22T05:30:04.080Z,100666.98
2023-04-22T05:32:55.942Z,100666.29
2023-04-22T05:47:45.369Z,100667.61
2023-04-22T05:50:17.318Z,100668.27
2023-04-22T05:52:50.454Z,100669.69
2023-04-22T05:55:48.001Z,100670.21
2023-04-22T05:58:20.827Z,100673.75
2023-04-22T06:00:52.394Z,100676.10
2023-04-22T06:03:29.532Z,100682.75
2023-04-22T06:06:28.479Z,100684.33
2023-04-22T06:09:14.345Z,100688.95
2023-04-22T06:18:32.780Z,100696.33
2023-04-22T06:21:04.822Z,100696.98
2023-04-22T06:23:49.000Z,100701.41
2023-04-22T06:26:19.996Z,100700.10
2023-04-22T06:28:53.445Z,100700.30
2023-04-22T06:31:26.871Z,100700.73
2023-04-22T06:33:58.531Z,100697.38
2023-04-22T06:36:30.739Z,100698.45
2023-04-22T06:39:03.674Z,100698.25
2023-04-22T06:47:37.462Z,100703.80
2023-04-22T06:50:09.751Z,100707.45
2023-04-22T06:52:54.459Z,100705.30
2023-04-22T06:55:53.706Z,100708.46
2023-04-22T06:58:27.661Z,100708.73
2023-04-22T07:01:01.051Z,100708.77
2023-04-22T07:03:32.626Z,100713.18
2023-04-22T07:06:04.364Z,100714.83
2023-04-22T07:08:35.625Z,100713.52
2023-04-22T07:11:18.074Z,100717.79
2023-04-22T07:17:08.459Z,100721.52
2023-04-22T07:19:40.623Z,100718.55
2023-04-22T07:22:14.736Z,100722.91
2023-04-22T07:25:01.817Z,100728.29
2023-04-22T07:30:34.365Z,100733.35
2023-04-22T07:40:01.657Z,100736.70
2023-04-22T07:49:41.247Z,100750.72
2023-04-22T07:49:49.879Z,100749.85
2023-04-22T07:52:13.745Z,100759.02
2023-04-22T07:54:58.391Z,100751.44
2023-04-22T07:57:49.689Z,100753.77
2023-04-22T08:00:37.379Z,100755.54
2023-04-22T08:03:09.288Z,100751.98
2023-04-22T08:05:43.213Z,100750.70
2023-04-22T08:08:14.054Z,100752.04
2023-04-22T08:10:45.048Z,100754.20
2023-04-22T08:13:18.204Z,100754.64
2023-04-22T08:15:49.605Z,100756.79
2023-04-22T08:18:20.904Z,100758.59
2023-04-22T08:20:53.037Z,100758.59
2023-04-22T08:29:32.723Z,100756.77
2023-04-22T08:32:04.824Z,100756.29
2023-04-22T08:34:36.720Z,100754.13
2023-04-22T08:37:08.069Z,100754.42
2023-04-22T08:39:39.131Z,100752.95
2023-04-22T08:42:10.279Z,100751.98
2023-04-22T08:44:41.350Z,100753.21
2023-04-22T08:47:13.328Z,100748.04
2023-04-22T08:49:45.199Z,100743.41
2023-04-22T08:52:33.924Z,100741.05
2023-04-22T08:55:12.896Z,100747.94
2023-04-22T08:58:26.771Z,100746.32
2023-04-22T09:01:14.726Z,100745.75
2023-04-22T09:03:47.325Z,100744.05
2023-04-22T09:06:18.301Z,100742.45
2023-04-22T09:08:53.299Z,100739.40
2023-04-22T09:11:27.140Z,100744.21
2023-04-22T09:17:00.210Z,100737.67
2023-04-22T09:19:35.590Z,100740.09
2023-04-22T09:22:06.372Z,100739.65
2023-04-22T09:24:37.482Z,100740.48
2023-04-22T09:27:08.406Z,100744.07
2023-04-22T09:29:39.467Z,100739.04
2023-04-22T09:32:14.051Z,100736.10
2023-04-22T09:34:50.790Z,100738.75
2023-04-22T09:37:24.658Z,100733.36
2023-04-22T09:39:56.807Z,100732.20
2023-04-22T09:42:27.719Z,100730.44
2023-04-22T09:44:59.845Z,100731.20
2023-04-22T09:47:32.359Z,100730.92
2023-04-22T09:50:03.161Z,100730.58
2023-04-22T09:52:34.020Z,100730.70
2023-04-22T09:55:05.619Z,100728.76
2023-04-22T09:57:37.165Z,100732.11
2023-04-22T10:00:10.692Z,100732.69
2023-04-22T10:02:41.717Z,100730.55
2023-04-22T10:05:12.961Z,100727.19
2023-04-22T10:07:43.886Z,100727.56
2023-04-22T10:10:14.993Z,100718.27
2023-04-22T10:12:45.813Z,100715.29
2023-04-22T10:15:16.691Z,100711.15
2023-04-22T10:17:47.423Z,100712.51
2023-04-22T10:20:21.189Z,100709.00
2023-04-22T10:22:52.374Z,100707.89
2023-04-22T10:25:27.217Z,100705.08
2023-04-22T10:27:58.206Z,100702.50
2023-04-22T10:30:30.257Z,100702.05
2023-04-22T10:33:14.565Z,100707.27
2023-04-22T10:36:00.760Z,100697.48
2023-04-22T10:38:31.579Z,100696.24
2023-04-22T10:41:03.508Z,100693.41
2023-04-22T10:43:51.442Z,100683.15
2023-04-22T10:46:45.845Z,100679.53
2023-04-22T10:49:20.903Z,100687.27
2023-04-22T10:51:54.618Z,100683.04
2023-04-22T10:54:42.547Z,100684.60
2023-04-22T10:57:14.800Z,100682.64
2023-04-22T10:59:49.462Z,100680.90
2023-04-22T11:02:21.677Z,100685.73
2023-04-22T11:04:53.734Z,100692.77
2023-04-22T11:07:40.873Z,100691.63
2023-04-22T11:10:17.369Z,100691.06
2023-04-22T11:12:48.411Z,100691.07
2023-04-22T11:15:20.242Z,100692.71
2023-04-22T11:17:52.145Z,100689.05
2023-04-22T11:20:23.037Z,100689.77
2023-04-22T11:22:54.378Z,100692.52
2023-04-22T11:25:25.748Z,100696.27
2023-04-22T11:27:56.365Z,100694.32
2023-04-22T11:30:27.746Z,100690.95
2023-04-22T11:33:00.107Z,100692.61
2023-04-22T11:35:32.066Z,100695.40
2023-04-22T11:38:03.780Z,100694.11
2023-04-22T11:40:38.335Z,100689.39
2023-04-22T11:43:10.267Z,100683.00
2023-04-22T11:45:42.691Z,100687.71
2023-04-22T11:48:13.684Z,100688.62
2023-04-22T11:50:44.959Z,100685.47
2023-04-22T11:53:16.405Z,100685.88
2023-04-22T11:55:48.178Z,100692.33
2023-04-22T11:58:20.464Z,100690.42
2023-04-22T12:00:51.789Z,100689.91
2023-04-22T12:03:24.376Z,100688.23
2023-04-22T12:05:55.996Z,100684.45
2023-04-22T12:08:27.355Z,100687.69
2023-04-22T12:10:59.096Z,100685.96
2023-04-22T12:13:33.386Z,100681.98
2023-04-22T12:16:04.593Z,100674.19
2023-04-22T12:18:35.992Z,100669.60
2023-04-22T12:21:11.114Z,100671.90
2023-04-22T12:23:45.117Z,100666.96
2023-04-22T12:26:16.488Z,100668.58
2023-04-22T12:28:47.219Z,100670.40
2023-04-22T12:31:18.160Z,100673.22
2023-04-22T12:33:49.107Z,100671.32
2023-04-22T12:36:21.011Z,100673.56
2023-04-22T12:38:51.964Z,100673.48
2023-04-22T12:41:23.829Z,100671.09
2023-04-22T12:43:55.416Z,100668.75
2023-04-22T12:46:26.621Z,100669.45
2023-04-22T12:48:57.245Z,100666.16
2023-04-22T12:51:28.105Z,100666.73
2023-04-22T12:53:59.332Z,100661.02
2023-04-22T12:56:30.312Z,100667.81
2023-04-22T12:59:03.542Z,100671.26
2023-04-22T13:01:35.906Z,100667.78
2023-04-22T13:04:07.474Z,100671.02
2023-04-22T13:06:38.789Z,100664.54
2023-04-22T13:09:09.521Z,100667.34
2023-04-22T13:11:40.255Z,100676.54
2023-04-22T13:14:11.111Z,100673.86
2023-04-22T13:16:41.977Z,100672.83
2023-04-22T13:19:12.769Z,100676.07
2023-04-22T13:21:43.867Z,100677.29
2023-04-22T13:24:14.605Z,100673.20
2023-04-22T13:26:45.356Z,100674.48
2023-04-22T13:29:16.783Z,100673.45
2023-04-22T13:31:47.575Z,100677.27
2023-04-22T13:34:18.771Z,100678.31
2023-04-22T13:36:49.685Z,100676.34
2023-04-22T13:39:20.528Z,100677.23
2023-04-22T13:41:51.206Z,100678.65
2023-04-22T13:44:21.954Z,100686.83
2023-04-22T13:46:52.828Z,100689.17
2023-04-22T13:49:23.891Z,100704.79
2023-04-22T13:51:54.819Z,100717.77
2023-04-22T13:54:26.175Z,100724.55
2023-04-22T13:56:57.107Z,100729.95
2023-04-22T13:59:30.238Z,100727.64
2023-04-22T14:02:00.956Z,100728.63
2023-04-22T14:04:31.747Z,100732.30
2023-04-22T14:07:02.744Z,100735.28
2023-04-22T14:09:34.713Z,100746.86
2023-04-22T14:12:08.032Z,100755.17
2023-04-22T14:14:38.897Z,100761.27
2023-04-22T14:17:09.774Z,100765.05
2023-04-22T14:19:40.869Z,100768.80
2023-04-22T14:22:11.950Z,100777.64
2023-04-22T14:24:42.839Z,100785.08
2023-04-22T14:27:13.715Z,100787.99
2023-04-22T14:29:46.313Z,100789.02
2023-04-22T14:32:18.567Z,100790.73
2023-04-22T14:34:49.816Z,100791.52
2023-04-22T14:37:21.645Z,100792.23
2023-04-22T14:39:53.076Z,100795.15
2023-04-22T14:42:23.831Z,100799.94
2023-04-22T14:44:54.675Z,100800.15
2023-04-22T14:47:25.933Z,100803.91
2023-04-22T14:49:57.088Z,100807.89
2023-04-22T14:52:27.867Z,100808.34
2023-04-22T14:55:00.193Z,100804.19
2023-04-22T14:57:34.441Z,100786.86
2023-04-22T15:00:06.475Z,100771.62
2023-04-22T15:02:37.282Z,100774.25
2023-04-22T15:05:08.747Z,100773.14
2023-04-22T15:07:39.519Z,100778.86
2023-04-22T15:10:11.014Z,100786.85
2023-04-22T15:12:41.770Z,100792.52
2023-04-22T15:15:16.047Z,100793.67
2023-04-22T15:17:47.104Z,100790.21
2023-04-22T15:20:18.263Z,100783.51
2023-04-22T15:22:50.007Z,100781.26
2023-04-22T15:25:21.362Z,100781.20
2023-04-22T15:27:53.302Z,100777.78
2023-04-22T15:30:24.648Z,100775.19
2023-04-22T15:32:55.585Z,100774.80
2023-04-22T15:35:26.516Z,100770.10
2023-04-22T15:37:58.023Z,100768.27
2023-04-22T15:40:31.621Z,100769.56
2023-04-22T15:43:02.571Z,100768.51
2023-04-22T15:45:33.198Z,100769.20
2023-04-22T15:48:08.270Z,100772.84
2023-04-22T15:53:27.445Z,100769.98
2023-04-22T15:55:58.627Z,100764.29
2023-04-22T15:58:32.442Z,100768.34
2023-04-22T16:01:17.815Z,100765.60
2023-04-22T16:03:49.656Z,100767.14
2023-04-22T16:06:20.710Z,100766.95
2023-04-22T16:08:51.372Z,100764.41
2023-04-22T16:11:22.664Z,100762.33
2023-04-22T16:13:53.566Z,100762.80
2023-04-22T16:16:25.446Z,100761.89
2023-04-22T16:18:57.784Z,100765.36
2023-04-22T16:21:29.727Z,100764.90
2023-04-22T16:24:00.946Z,100766.62
2023-04-22T16:26:31.824Z,100768.17
2023-04-22T16:29:02.540Z,100772.63
2023-04-22T16:31:33.532Z,100776.52
2023-04-22T16:34:04.272Z,100780.28
2023-04-22T16:36:35.255Z,100780.91
2023-04-22T16:39:07.157Z,100780.36
2023-04-22T16:41:38.272Z,100782.14
2023-04-22T16:44:09.133Z,100781.95
2023-04-22T16:46:40.123Z,100780.52
2023-04-22T16:49:12.412Z,100785.30
2023-04-22T16:51:43.509Z,100781.88
2023-04-22T16:54:14.448Z,100784.31
2023-04-22T16:56:48.075Z,100781.92
2023-04-22T16:59:18.936Z,100784.79
2023-04-22T17:01:50.951Z,100788.69
2023-04-22T17:04:22.905Z,100791.90
2023-04-22T17:06:53.924Z,100794.55
2023-04-22T17:09:24.476Z,100799.78
2023-04-22T17:11:55.230Z,100800.95
2023-04-22T17:14:26.384Z,100798.95
2023-04-22T17:16:58.456Z,100805.11
2023-04-22T17:19:29.452Z,100806.10
2023-04-22T17:22:01.891Z,100805.49
2023-04-22T17:24:34.545Z,100806.30
2023-04-22T17:27:11.889Z,100806.86
2023-04-22T17:29:46.704Z,100808.34
2023-04-22T17:32:17.451Z,100807.29
2023-04-22T17:34:48.339Z,100810.59
2023-04-22T17:37:19.256Z,100812.13
2023-04-22T17:39:51.317Z,100815.27
2023-04-22T17:42:48.325Z,100817.73
2023-04-22T17:45:28.376Z,100823.80
2023-04-22T17:48:01.847Z,100825.43
2023-04-22T17:50:32.686Z,100828.77
2023-04-22T17:53:04.041Z,100828.92
2023-04-22T17:55:36.133Z,100828.98
2023-04-22T17:58:07.280Z,100827.84
2023-04-22T18:00:42.475Z,100833.23
2023-04-22T18:03:20.594Z,100831.26
2023-04-22T18:08:43.354Z,100831.71
2023-04-22T18:11:14.133Z,100834.05
2023-04-22T18:13:44.893Z,100838.57
2023-04-22T18:16:15.652Z,100840.96
2023-04-22T18:18:46.548Z,100842.39
2023-04-22T18:21:17.261Z,100844.51
2023-04-22T18:23:48.540Z,100849.23
2023-04-22T18:26:19.389Z,100850.45
2023-04-22T18:28:50.036Z,100847.23
2023-04-22T18:31:20.855Z,100847.72
2023-04-22T18:33:51.739Z,100848.58
2023-04-22T18:36:24.618Z,100848.36
2023-04-22T18:38:55.469Z,100852.30
2023-04-22T18:41:26.841Z,100853.24
2023-04-22T18:43:57.659Z,100856.70
2023-04-22T18:46:28.813Z,100862.80
2023-04-22T18:48:59.610Z,100865.13
2023-04-22T18:51:30.581Z,100870.33
2023-04-22T18:54:01.481Z,100869.36
2023-04-22T18:56:34.014Z,100873.19
2023-04-22T18:59:05.463Z,100875.16
2023-04-22T19:01:36.969Z,100875.45
2023-04-22T19:04:22.403Z,100877.69
2023-04-22T19:06:58.201Z,100877.20
2023-04-22T19:09:29.228Z,100879.96
2023-04-22T19:12:00.122Z,100881.19
2023-04-22T19:14:31.064Z,100884.19
2023-04-22T19:17:01.939Z,100884.16
2023-04-22T19:19:32.719Z,100878.86
2023-04-22T19:22:03.730Z,100879.36
2023-04-22T19:24:36.768Z,100880.11
2023-04-22T19:27:12.544Z,100880.11
2023-04-22T19:29:51.326Z,100879.66
2023-04-22T19:32:23.919Z,100881.61
2023-04-22T19:34:55.490Z,100882.55
2023-04-22T19:37:33.274Z,100887.15
2023-04-22T19:40:05.886Z,100883.59
2023-04-22T19:42:40.235Z,100890.46
2023-04-22T19:45:23.932Z,100883.80
2023-04-22T20:05:19.085Z,100897.48
2023-04-22T20:07:50.393Z,100896.52
2023-04-22T20:10:23.110Z,100897.04
2023-04-22T20:12:56.326Z,100900.60
2023-04-22T20:15:28.100Z,100903.73
2023-04-22T20:18:00.170Z,100900.90
2023-04-22T20:20:32.442Z,100903.71
2023-04-22T20:23:10.447Z,100900.30
2023-04-22T20:25:44.190Z,100901.14
2023-04-22T20:28:15.885Z,100904.36
2023-04-22T20:30:47.993Z,100902.98
2023-04-22T20:33:21.349Z,100905.86
2023-04-22T20:35:54.880Z,100905.04
2023-04-22T20:38:26.056Z,100901.88
2023-04-22T20:40:57.632Z,100909.59
2023-04-22T20:43:29.196Z,100907.62
2023-04-22T20:46:01.042Z,100906.27
2023-04-22T20:48:32.419Z,100906.23
2023-04-22T20:51:04.231Z,100903.81
2023-04-22T20:53:36.481Z,100904.27
2023-04-22T20:56:08.253Z,100902.73
2023-04-22T20:58:39.844Z,100903.85
2023-04-22T21:01:11.182Z,100903.19
2023-04-22T21:03:42.659Z,100905.27
2023-04-22T21:06:14.480Z,100904.25
2023-04-22T21:08:46.337Z,100904.98
2023-04-22T21:11:18.638Z,100900.61
2023-04-22T21:13:51.186Z,100900.08
2023-04-22T21:16:24.065Z,100898.64
2023-04-22T21:18:56.299Z,100896.67
2023-04-22T21:21:28.267Z,100894.81
2023-04-22T21:24:00.458Z,100896.02
2023-04-22T21:26:31.930Z,100893.31
2023-04-22T21:29:03.125Z,100895.40
2023-04-22T21:31:35.269Z,100888.36
2023-04-22T21:34:09.777Z,100889.86
2023-04-22T21:36:41.302Z,100891.20
2023-04-22T21:39:12.531Z,100890.42
2023-04-22T21:41:43.952Z,100894.81
2023-04-22T21:44:15.504Z,100898.89
2023-04-22T21:46:46.994Z,100899.44
2023-04-22T21:49:18.494Z,100899.71
2023-04-22T21:51:49.885Z,100898.30
2023-04-22T21:54:21.305Z,100899.49
2023-04-22T21:56:52.587Z,100899.48
2023-04-22T21:59:25.088Z,100898.95
2023-04-22T22:01:56.335Z,100892.94
2023-04-22T22:04:27.756Z,100889.55
2023-04-22T22:06:59.247Z,100886.11
2023-04-22T22:09:30.933Z,100883.94
2023-04-22T22:12:03.038Z,100884.11
2023-04-22T22:14:34.424Z,100883.34
2023-04-22T22:17:08.577Z,100884.00
2023-04-22T22:19:40.020Z,100878.09
2023-04-22T22:22:11.652Z,100877.36
2023-04-22T22:24:43.324Z,100876.92
2023-04-22T22:27:14.966Z,100880.66
2023-04-22T22:29:46.683Z,100882.48
2023-04-22T22:32:18.031Z,100887.63
2023-04-22T22:34:49.549Z,100888.64
2023-04-22T22:37:20.978Z,100884.23
2023-04-22T22:39:52.158Z,100880.30
2023-04-22T22:42:23.406Z,100876.38
2023-04-22T22:44:54.798Z,100874.27
2023-04-22T22:47:26.663Z,100872.34
2023-04-22T22:49:58.018Z,100866.90
2023-04-22T22:52:29.391Z,100865.55
2023-04-22T22:55:00.772Z,100864.82
2023-04-22T22:57:32.367Z,100858.54
2023-04-22T23:00:05.448Z,100856.29
2023-04-22T23:02:37.080Z,100861.08
2023-04-22T23:05:10.866Z,100861.86
2023-04-22T23:07:42.376Z,100867.17
2023-04-22T23:10:13.931Z,100863.09
2023-04-22T23:12:45.303Z,100862.30
2023-04-22T23:15:16.980Z,100862.53
2023-04-22T23:17:48.255Z,100860.94
2023-04-22T23:20:19.990Z,100860.04
2023-04-22T23:22:51.868Z,100859.79
2023-04-22T23:25:23.748Z,100858.32
2023-04-22T23:27:55.114Z,100858.66
2023-04-22T23:30:26.881Z,100859.56
2023-04-22T23:32:58.379Z,100858.67
2023-04-22T23:35:29.905Z,100858.79
2023-04-22T23:38:01.208Z,100858.04
2023-04-22T23:40:32.711Z,100857.71
2023-04-22T23:43:03.948Z,100856.20
2023-04-22T23:45:35.286Z,100857.85
2023-04-22T23:48:06.829Z,100858.17
2023-04-22T23:50:38.318Z,100861.01
2023-04-22T23:53:09.705Z,100860.60
2023-04-22T23:55:41.605Z,100857.45
2023-04-22T23:58:16.248Z,100857.59
